Time;durP1;ratioP1;P1;durP2;ratioP2;P2;SDS_P1;SDS_P2;PMS_P1;PMS_P2;Temp;Humidity;BMP_temperature;BMP_pressure;BME280_temperature;BME280_humidity;BME280_pressure;Samples;Min_cycle;Max_cycle;Signal;HPM_P1;HPM_P2
2023/11/08 00:01:50;;;;;;;12.57;6.70;;;7.00;99.90;;;6.38;100.00;101252.22;4230461;28;20024;-70
2023/11/08 00:03:50;;;;;;;12.52;6.50;;;7.00;99.90;;;6.39;100.00;101251.25;4237721;27;20019;-69
2023/11/08 00:05:51;;;;;;;13.40;7.80;;;7.10;99.90;;;6.37;100.00;101247.06;4223376;28;20038;-69
2023/11/08 00:07:52;;;;;;;11.77;6.47;;;7.00;99.90;;;6.38;100.00;101246.13;4218320;28;20020;-69
2023/11/08 00:09:54;;;;;;;11.48;7.57;;;7.00;99.90;;;6.37;100.00;101247.91;4218729;28;20120;-69
2023/11/08 00:11:55;;;;;;;11.23;6.40;;;7.00;99.90;;;6.38;100.00;101246.13;4218671;28;20103;-69
2023/11/08 00:13:57;;;;;;;19.00;6.60;;;7.00;99.90;;;6.39;100.00;101246.00;4218594;28;20517;-69
2023/11/08 00:15:58;;;;;;;10.57;6.35;;;7.00;99.90;;;6.38;100.00;101241.72;4218502;28;20390;-69
2023/11/08 00:17:59;;;;;;;10.07;6.38;;;7.00;99.90;;;6.39;100.00;101238.16;4234237;28;20081;-70
2023/11/08 00:20:00;;;;;;;12.75;7.13;;;7.00;99.90;;;6.42;100.00;101235.28;4226900;28;20027;-70
2023/11/08 00:22:01;;;;;;;12.98;7.60;;;7.10;99.90;;;6.47;100.00;101235.78;4223561;28;20032;-70
2023/11/08 00:24:02;;;;;;;12.13;7.88;;;7.10;99.90;;;6.52;100.00;101230.19;4218272;28;20028;-70
2023/11/08 00:26:04;;;;;;;15.48;8.75;;;7.10;99.90;;;6.53;100.00;101232.69;4218690;28;20020;-70
2023/11/08 00:28:05;;;;;;;13.35;7.53;;;7.20;99.90;;;6.61;100.00;101238.19;4218595;28;20032;-70
2023/11/08 00:30:07;;;;;;;15.00;8.48;;;7.20;99.90;;;6.66;100.00;101243.06;4218444;28;20028;-70
2023/11/08 00:32:07;;;;;;;14.32;8.45;;;7.30;99.90;;;6.69;100.00;101232.31;4232002;28;20032;-69
2023/11/08 00:34:08;;;;;;;16.73;8.30;;;7.30;99.90;;;6.73;100.00;101232.94;4230177;28;20048;-69
2023/11/08 00:36:09;;;;;;;18.70;9.50;;;7.30;99.90;;;6.73;100.00;101225.91;4218262;28;20479;-69
2023/11/08 00:38:10;;;;;;;11.57;7.93;;;7.40;99.90;;;6.77;100.00;101216.84;4218282;28;20023;-69
2023/11/08 00:40:12;;;;;;;14.75;8.82;;;7.40;99.90;;;6.79;100.00;101211.47;4220509;28;20032;-69
2023/11/08 00:42:13;;;;;;;13.52;8.10;;;7.40;99.90;;;6.82;100.00;101217.31;4218483;28;20403;-69
2023/11/08 00:44:14;;;;;;;14.82;8.73;;;7.40;99.90;;;6.83;100.00;101216.38;4233861;28;20063;-69
2023/11/08 00:46:15;;;;;;;11.90;8.95;;;7.40;99.90;;;6.86;100.00;101217.91;4218382;28;20391;-69
2023/11/08 00:48:16;;;;;;;14.68;8.68;;;7.50;99.90;;;6.91;100.00;101221.00;4233862;28;20027;-69
2023/11/08 00:50:17;;;;;;;14.35;9.30;;;7.50;99.90;;;6.95;100.00;101222.44;4218341;28;20028;-69
2023/11/08 00:52:18;;;;;;;17.27;8.57;;;7.50;99.90;;;6.97;100.00;101218.72;4218355;28;20024;-69
2023/11/08 00:54:18;;;;;;;14.18;7.70;;;7.60;99.90;;;6.99;100.00;101208.13;4218077;28;20034;-69
2023/11/08 00:56:19;;;;;;;14.32;8.20;;;7.60;99.90;;;7.02;100.00;101210.50;4218226;28;20057;-69
2023/11/08 00:58:20;;;;;;;13.35;8.73;;;7.60;99.90;;;7.02;100.00;101203.47;4218374;28;20020;-69
2023/11/08 01:00:21;;;;;;;14.45;7.93;;;7.60;99.90;;;7.04;100.00;101212.06;4216980;28;20042;-69
2023/11/08 01:02:22;;;;;;;11.95;7.70;;;7.60;99.90;;;7.06;100.00;101201.44;4218242;28;20028;-69
2023/11/08 01:04:23;;;;;;;13.65;8.50;;;7.70;99.90;;;7.04;100.00;101200.72;4218022;28;20036;-69
2023/11/08 01:06:25;;;;;;;11.70;8.25;;;7.70;99.90;;;7.10;100.00;101205.50;4234050;28;20016;-69
2023/11/08 01:08:26;;;;;;;11.40;7.95;;;7.70;99.90;;;7.10;100.00;101206.31;4217999;28;20034;-69
2023/11/08 01:10:26;;;;;;;13.50;7.70;;;7.70;99.90;;;7.12;100.00;101208.81;4219390;28;20020;-69
2023/11/08 01:12:27;;;;;;;10.73;7.93;;;7.70;99.90;;;7.17;100.00;101211.91;4218069;28;20556;-69
2023/11/08 01:14:28;;;;;;;12.25;7.60;;;7.80;99.90;;;7.17;100.00;101211.91;4218144;28;20502;-69
2023/11/08 01:16:29;;;;;;;10.82;7.35;;;7.80;99.90;;;7.20;100.00;101211.66;4233836;28;20057;-69
2023/11/08 01:18:32;;;;;;;12.35;7.43;;;7.80;99.90;;;7.22;100.00;101204.50;4218075;28;20028;-69
2023/11/08 01:20:32;;;;;;;16.13;8.70;;;7.80;99.90;;;7.28;100.00;101213.69;4230878;28;20038;-69
2023/11/08 01:22:33;;;;;;;13.93;7.38;;;7.90;99.90;;;7.32;100.00;101215.09;4218570;28;20032;-69
2023/11/08 01:24:34;;;;;;;13.10;7.40;;;7.90;99.90;;;7.31;100.00;101201.16;4233497;28;20034;-69
2023/11/08 01:26:35;;;;;;;15.57;6.97;;;8.00;99.90;;;7.35;100.00;101202.53;4218022;28;20020;-69
2023/11/08 01:28:36;;;;;;;14.02;7.88;;;8.00;99.90;;;7.39;100.00;101206.59;4217886;28;20031;-69
2023/11/08 01:30:38;;;;;;;14.98;7.82;;;8.00;99.90;;;7.37;100.00;101197.19;4217753;28;20035;-69
2023/11/08 01:32:39;;;;;;;16.75;8.40;;;8.00;99.90;;;7.45;100.00;101205.25;4217758;28;20058;-70
2023/11/08 01:34:40;;;;;;;16.52;7.88;;;8.00;99.90;;;7.49;100.00;101212.78;4225998;28;20028;-69
2023/11/08 01:36:40;;;;;;;11.02;7.53;;;8.10;99.90;;;7.52;100.00;101204.66;4228541;28;20019;-69
2023/11/08 01:38:41;;;;;;;14.63;7.68;;;8.10;99.90;;;7.54;100.00;101194.84;4219351;28;20028;-69
2023/11/08 01:40:45;;;;;;;8.25;6.40;;;8.20;99.90;;;7.55;100.00;101195.69;4218026;28;20032;-69
2023/11/08 01:42:47;;;;;;;10.35;6.47;;;8.20;99.90;;;7.55;100.00;101198.31;4233341;28;20150;-69
2023/11/08 01:44:49;;;;;;;11.35;6.18;;;8.20;99.90;;;7.57;100.00;101197.22;4220309;28;20043;-69
2023/11/08 01:46:54;;;;;;;11.27;6.75;;;8.20;99.90;;;7.61;100.00;101201.28;4218935;28;20020;-69
2023/11/08 01:48:56;;;;;;;9.82;6.65;;;8.20;99.90;;;7.63;100.00;101194.09;4236353;28;20035;-69
2023/11/08 01:50:57;;;;;;;13.68;6.40;;;8.30;99.90;;;7.66;100.00;101177.25;4220876;28;20028;-69
2023/11/08 01:52:58;;;;;;;12.10;6.03;;;8.30;99.90;;;7.64;100.00;101179.19;4236264;28;20072;-69
2023/11/08 01:55:01;;;;;;;9.32;5.63;;;8.30;99.90;;;7.66;100.00;101183.34;4229974;28;20096;-69
2023/11/08 01:57:02;;;;;;;8.15;6.15;;;8.30;99.90;;;7.69;100.00;101183.09;4236498;28;20023;-70
2023/11/08 01:59:05;;;;;;;10.75;5.93;;;8.30;99.90;;;7.69;100.00;101182.25;4227239;28;20055;-69
2023/11/08 02:01:10;;;;;;;9.07;5.88;;;8.30;99.90;;;7.74;100.00;101180.91;4232196;28;20024;-69
2023/11/08 02:03:11;;;;;;;10.90;5.75;;;8.30;99.90;;;7.74;100.00;101178.28;4236392;28;20084;-70
2023/11/08 02:05:12;;;;;;;9.40;5.72;;;8.40;99.90;;;7.79;100.00;101183.19;4236243;28;20023;-70
2023/11/08 02:07:13;;;;;;;10.68;6.22;;;8.40;99.90;;;7.80;100.00;101177.78;4237466;28;20027;-69
2023/11/08 02:09:14;;;;;;;10.27;5.20;;;8.40;99.90;;;7.80;100.00;101167.28;4237175;28;20042;-69
2023/11/08 02:11:15;;;;;;;9.68;5.10;;;8.50;99.90;;;7.82;100.00;101161.06;4237412;28;20045;-69
2023/11/08 02:13:16;;;;;;;9.98;5.28;;;8.50;99.90;;;7.83;100.00;101153.06;4236295;28;20028;-70
2023/11/08 02:15:19;;;;;;;9.80;5.13;;;8.50;99.90;;;7.89;100.00;101156.94;4236046;28;20055;-70
2023/11/08 02:17:19;;;;;;;11.77;6.47;;;8.50;99.90;;;7.89;100.00;101149.91;4237424;28;20478;-69
2023/11/08 02:19:20;;;;;;;6.93;4.40;;;8.50;99.90;;;7.88;100.00;101150.06;4205801;28;20046;-69
2023/11/08 02:21:21;;;;;;;11.23;4.65;;;8.50;99.90;;;7.91;100.00;101142.75;4231395;28;20078;-70
2023/11/08 02:23:22;;;;;;;12.52;5.00;;;8.50;99.90;;;7.90;100.00;101141.06;4222153;28;20036;-70
2023/11/08 02:25:24;;;;;;;8.38;4.22;;;8.50;99.90;;;7.90;100.00;101138.44;4220202;28;20077;-69
2023/11/08 02:27:24;;;;;;;10.55;4.88;;;8.50;99.90;;;7.90;100.00;101125.31;4220310;28;20028;-70
2023/11/08 02:29:26;;;;;;;9.38;4.28;;;8.50;99.90;;;7.92;100.00;101125.16;4220300;28;20020;-69
2023/11/08 02:31:27;;;;;;;6.75;3.63;;;8.50;99.90;;;7.90;100.00;101108.72;4220342;28;20107;-70
2023/11/08 02:33:28;;;;;;;11.38;4.28;;;8.50;99.90;;;7.90;100.00;101104.31;4226485;28;20488;-69
2023/11/08 02:35:30;;;;;;;10.15;4.13;;;8.50;99.90;;;7.92;100.00;101104.16;4221586;28;20055;-69
2023/11/08 02:37:31;;;;;;;7.95;4.65;;;8.50;99.90;;;7.93;100.00;101103.22;4220365;28;20016;-69
2023/11/08 02:39:32;;;;;;;7.50;3.60;;;8.50;99.90;;;7.92;100.00;101101.53;4219866;28;20074;-69
2023/11/08 02:41:35;;;;;;;6.68;3.72;;;8.50;99.90;;;7.94;100.00;101107.50;4219916;28;20483;-69
2023/11/08 02:43:36;;;;;;;8.60;4.13;;;8.50;99.90;;;7.94;100.00;101097.00;4219873;28;20372;-69
2023/11/08 02:45:37;;;;;;;7.13;4.15;;;8.60;99.90;;;7.96;100.00;101097.69;4235577;28;20020;-69
2023/11/08 02:47:38;;;;;;;11.38;4.88;;;8.60;99.90;;;8.00;100.00;101096.47;4235695;28;20550;-69
2023/11/08 02:49:39;;;;;;;8.82;4.53;;;8.60;99.90;;;8.03;100.00;101096.22;4218736;28;20519;-69
2023/11/08 02:51:40;;;;;;;7.93;3.97;;;8.60;99.90;;;8.05;100.00;101094.28;4218544;28;20035;-69
2023/11/08 02:53:41;;;;;;;8.68;4.18;;;8.70;99.90;;;8.11;100.00;101089.34;4219693;28;20023;-69
2023/11/08 02:55:42;;;;;;;9.45;4.70;;;8.70;99.90;;;8.14;100.00;101093.50;4219841;28;20471;-69
2023/11/08 02:57:43;;;;;;;6.97;3.90;;;8.80;99.90;;;8.11;100.00;101094.59;4219758;28;20471;-69
2023/11/08 02:59:45;;;;;;;8.27;4.03;;;8.80;99.90;;;8.17;100.00;101082.72;4219403;28;20050;-69
2023/11/08 03:01:46;;;;;;;8.32;3.17;;;8.80;99.90;;;8.20;100.00;101077.22;4219728;28;20063;-69
2023/11/08 03:03:47;;;;;;;7.68;3.33;;;8.80;99.90;;;8.23;100.00;101072.53;4224186;28;20054;-69
2023/11/08 03:05:48;;;;;;;7.68;3.38;;;8.80;99.90;;;8.28;100.00;101072.13;4219727;28;20032;-69
2023/11/08 03:07:54;;;;;;;8.20;2.90;;;8.90;99.90;;;8.25;100.00;101065.31;4219276;28;20032;-69
2023/11/08 03:09:55;;;;;;;5.18;2.30;;;8.90;99.90;;;8.28;100.00;101064.25;4235066;28;20162;-69
2023/11/08 03:11:58;;;;;;;8.40;2.92;;;8.90;99.90;;;8.26;100.00;101060.91;4219528;28;20034;-70
2023/11/08 03:13:59;;;;;;;7.45;2.63;;;8.90;99.90;;;8.24;100.00;101055.78;4235077;28;20020;-70
2023/11/08 03:16:00;;;;;;;7.03;2.47;;;8.90;99.90;;;8.25;100.00;101064.50;4235137;28;20024;-69
2023/11/08 03:18:01;;;;;;;5.97;2.95;;;8.80;99.90;;;8.21;100.00;101047.34;4218105;28;20392;-70
2023/11/08 03:20:02;;;;;;;8.75;2.50;;;8.80;99.90;;;8.20;100.00;101056.19;4243898;27;20027;-69
2023/11/08 03:22:04;;;;;;;6.15;2.25;;;8.80;99.90;;;8.18;100.00;101060.75;4224088;28;20028;-69
2023/11/08 03:24:06;;;;;;;5.00;1.67;;;8.80;99.90;;;8.17;100.00;101046.78;4234775;28;20031;-69
2023/11/08 03:26:06;;;;;;;6.00;2.13;;;8.80;99.90;;;8.12;100.00;101048.94;4219428;28;20020;-69
2023/11/08 03:28:07;;;;;;;8.18;2.25;;;8.70;99.90;;;8.09;100.00;101044.00;4235205;28;20475;-69
2023/11/08 03:30:12;;;;;;;12.20;1.70;;;8.80;99.90;;;8.09;100.00;101041.38;4219248;28;20016;-69
2023/11/08 03:32:15;;;;;;;9.32;2.47;;;8.70;99.90;;;8.04;100.00;101040.06;4224031;28;20020;-70
2023/11/08 03:34:16;;;;;;;4.07;1.35;;;8.70;99.90;;;8.02;100.00;101026.25;4227114;28;20123;-69
2023/11/08 03:36:16;;;;;;;9.45;2.58;;;8.60;99.90;;;7.99;100.00;101026.50;4219324;28;20479;-69
2023/11/08 03:38:18;;;;;;;6.85;1.60;;;8.60;99.90;;;7.96;100.00;101017.09;4218926;28;20422;-69
2023/11/08 03:40:18;;;;;;;8.38;1.60;;;8.60;99.90;;;7.94;100.00;101032.16;4219115;28;20032;-69
2023/11/08 03:42:19;;;;;;;4.32;1.38;;;8.50;99.90;;;7.93;100.00;101033.13;4219162;28;20440;-69
2023/11/08 03:44:21;;;;;;;8.43;1.25;;;8.50;99.90;;;7.99;100.00;101021.25;4217713;28;20134;-69
2023/11/08 03:46:22;;;;;;;8.85;1.70;;;8.60;99.90;;;8.13;100.00;101026.13;4218951;28;20024;-69
2023/11/08 03:48:23;;;;;;;3.83;1.33;;;8.70;99.90;;;8.21;100.00;101015.81;4218943;28;20028;-69
2023/11/08 03:50:24;;;;;;;5.72;1.88;;;8.80;99.90;;;8.33;100.00;101030.53;4217705;28;20031;-69
2023/11/08 03:52:26;;;;;;;9.38;1.48;;;8.90;99.90;;;8.42;100.00;101034.16;4218941;28;20024;-69
2023/11/08 03:54:27;;;;;;;6.05;1.25;;;8.90;99.90;;;8.49;100.00;101036.09;4218678;28;20028;-69
2023/11/08 03:56:30;;;;;;;5.78;1.40;;;9.00;99.90;;;8.55;100.00;101035.56;4219031;28;20073;-69
2023/11/08 03:58:30;;;;;;;9.52;1.70;;;9.10;99.90;;;8.60;100.00;101033.34;4234426;28;20072;-69
2023/11/08 04:00:31;;;;;;;4.18;1.30;;;9.10;99.90;;;8.63;100.00;101032.25;4224016;28;20441;-69
2023/11/08 04:02:32;;;;;;;5.43;1.73;;;9.20;99.90;;;8.66;100.00;101026.72;4217476;28;20035;-69
2023/11/08 04:04:33;;;;;;;9.02;1.50;;;9.20;99.90;;;8.65;100.00;101025.06;4218599;28;20028;-69
2023/11/08 04:06:34;;;;;;;8.90;1.95;;;9.20;99.90;;;8.65;100.00;101025.06;4218904;28;20031;-69
2023/11/08 04:08:35;;;;;;;3.80;1.45;;;9.20;99.90;;;8.63;100.00;101022.53;4217314;28;20031;-69
2023/11/08 04:10:37;;;;;;;6.75;2.25;;;9.20;99.90;;;8.58;100.00;101021.28;4233781;28;20146;-69
2023/11/08 04:12:38;;;;;;;5.72;1.55;;;9.20;99.90;;;8.51;100.00;101015.75;4218625;28;20064;-69
2023/11/08 04:14:39;;;;;;;4.28;1.20;;;9.10;99.90;;;8.47;100.00;101008.28;4218772;28;20057;-69
2023/11/08 04:16:41;;;;;;;4.07;1.05;;;9.00;99.90;;;8.41;100.00;101011.44;4218656;28;20030;-69
2023/11/08 04:18:41;;;;;;;6.05;2.33;;;9.00;99.90;;;8.35;100.00;100999.69;4234367;28;20122;-69
2023/11/08 04:20:45;;;;;;;7.00;1.58;;;9.00;99.90;;;8.38;100.00;101007.31;4232291;28;20512;-69
2023/11/08 04:22:46;;;;;;;4.72;1.20;;;9.00;99.90;;;8.32;100.00;101008.69;4218467;28;20032;-69
2023/11/08 04:24:47;;;;;;;5.55;1.95;;;8.90;99.90;;;8.23;100.00;101000.72;4218539;28;20544;-69
2023/11/08 04:26:48;;;;;;;5.78;1.50;;;8.90;99.90;;;8.19;100.00;101005.41;4218495;28;20078;-69
2023/11/08 04:28:49;;;;;;;8.95;2.17;;;8.80;99.90;;;8.16;100.00;101007.47;4218386;28;20390;-69
2023/11/08 04:30:49;;;;;;;5.47;1.52;;;8.80;99.90;;;8.19;100.00;101009.84;4218616;28;20031;-69
2023/11/08 04:32:50;;;;;;;7.15;1.30;;;8.80;99.90;;;8.32;100.00;101013.09;4221446;28;20067;-70
2023/11/08 04:34:51;;;;;;;3.78;1.25;;;8.90;99.90;;;8.41;100.00;101000.94;4224625;28;20069;-69
2023/11/08 04:36:52;;;;;;;6.03;1.58;;;8.90;99.90;;;8.44;100.00;101004.13;4218468;28;20035;-69
2023/11/08 04:38:53;;;;;;;7.53;2.28;;;8.90;99.90;;;8.43;100.00;101002.47;4218595;28;20533;-69
2023/11/08 04:40:54;;;;;;;6.18;2.03;;;9.00;99.90;;;8.42;100.00;101003.44;4217186;28;20515;-69
2023/11/08 04:42:55;;;;;;;8.38;2.22;;;8.90;99.90;;;8.46;100.00;101001.34;4218332;28;20028;-69
2023/11/08 04:44:56;;;;;;;11.75;1.45;;;9.00;99.90;;;8.52;100.00;101004.28;4218204;28;20036;-69
2023/11/08 04:46:56;;;;;;;4.55;1.30;;;9.00;99.90;;;8.58;100.00;100998.47;4218440;28;20031;-69
2023/11/08 04:48:57;;;;;;;8.63;1.73;;;9.10;99.90;;;8.59;100.00;100989.63;4224064;28;20065;-69
2023/11/08 04:50:59;;;;;;;5.38;1.73;;;9.10;99.90;;;8.56;100.00;100984.63;4224804;28;20490;-69
2023/11/08 04:53:00;;;;;;;6.72;2.33;;;9.10;99.90;;;8.54;100.00;100985.75;4218230;28;20024;-69
2023/11/08 04:55:01;;;;;;;3.13;1.60;;;9.10;99.90;;;8.51;100.00;100988.66;4218363;28;20063;-69
2023/11/08 04:57:02;;;;;;;9.30;2.55;;;9.10;99.90;;;8.50;100.00;100984.34;4221624;28;20024;-69
2023/11/08 04:59:05;;;;;;;6.72;1.90;;;9.10;99.90;;;8.51;100.00;100988.66;4223599;28;20032;-69
2023/11/08 05:01:06;;;;;;;6.38;1.33;;;9.10;99.90;;;8.52;100.00;100983.25;4219910;28;20027;-69
2023/11/08 05:03:07;;;;;;;8.07;1.50;;;9.10;99.90;;;8.53;100.00;100990.16;4227970;28;20035;-69
2023/11/08 05:05:14;;;;;;;3.42;0.90;;;9.10;99.90;;;8.50;100.00;100985.19;4218143;28;20024;-69
2023/11/08 05:07:18;;;;;;;4.97;1.13;;;9.10;99.90;;;8.51;100.00;100975.50;4225972;28;20045;-69
2023/11/08 05:09:19;;;;;;;6.50;1.20;;;9.10;99.90;;;8.51;100.00;100970.25;4216876;28;20441;-69
2023/11/08 05:11:20;;;;;;;4.90;1.10;;;9.10;99.90;;;8.56;100.00;100973.28;4221363;28;20028;-69
2023/11/08 05:13:21;;;;;;;7.85;2.08;;;9.10;99.90;;;8.60;100.00;100974.69;4226163;28;20024;-69
2023/11/08 05:15:23;;;;;;;4.18;1.08;;;9.10;99.90;;;8.65;100.00;100967.19;4229057;28;20028;-69
2023/11/08 05:17:24;;;;;;;3.50;0.93;;;9.20;99.90;;;8.72;100.00;100966.50;4221183;28;20524;-70
2023/11/08 05:19:25;;;;;;;7.93;1.35;;;9.30;99.90;;;8.79;100.00;100969.41;4234431;28;20027;-70
2023/11/08 05:21:26;;;;;;;11.70;1.30;;;9.30;99.90;;;8.86;100.00;100971.38;4226993;28;20031;-69
2023/11/08 05:23:27;;;;;;;4.22;1.30;;;9.40;99.90;;;8.92;100.00;100967.34;4220184;28;20032;-69
2023/11/08 05:25:29;;;;;;;4.97;1.33;;;9.40;99.90;;;8.97;100.00;100961.63;4221240;28;20035;-69
2023/11/08 05:27:30;;;;;;;3.47;1.08;;;9.50;99.90;;;9.04;100.00;100965.38;4221184;28;20499;-69
2023/11/08 05:29:32;;;;;;;6.32;1.50;;;9.50;99.90;;;9.11;100.00;100959.41;4231827;28;20030;-69
2023/11/08 05:31:34;;;;;;;6.78;2.00;;;9.60;99.90;;;9.19;100.00;100956.06;4221195;28;20059;-69
2023/11/08 05:33:35;;;;;;;7.35;1.48;;;9.70;99.90;;;9.22;100.00;100953.16;4228604;28;20067;-69
2023/11/08 05:35:36;;;;;;;6.90;1.42;;;9.80;99.90;;;9.25;100.00;100947.63;4221152;27;20028;-69
2023/11/08 05:37:37;;;;;;;6.72;1.05;;;9.80;99.90;;;9.31;100.00;100950.50;4223041;28;20440;-69
2023/11/08 05:39:38;;;;;;;6.82;1.60;;;9.90;99.90;;;9.36;100.00;100957.97;4228196;28;20024;-69
2023/11/08 05:41:39;;;;;;;6.63;1.33;;;9.90;99.90;;;9.43;100.00;100959.06;4236691;28;20034;-69
2023/11/08 05:43:39;;;;;;;9.88;1.55;;;10.00;99.90;;;9.50;100.00;100954.88;4221003;28;20078;-69
2023/11/08 05:45:40;;;;;;;7.47;1.30;;;10.00;99.90;;;9.52;100.00;100947.69;4219638;28;20036;-69
2023/11/08 05:47:44;;;;;;;5.32;1.17;;;10.10;99.90;;;9.55;100.00;100944.75;4223323;28;20028;-69
2023/11/08 05:49:44;;;;;;;8.20;1.60;;;10.10;99.90;;;9.60;100.00;100942.50;4225013;28;20024;-69
2023/11/08 05:51:45;;;;;;;6.60;1.25;;;10.10;99.90;;;9.64;100.00;100943.88;4219418;28;20402;-69
2023/11/08 05:53:47;;;;;;;11.00;1.77;;;10.20;99.90;;;9.70;100.00;100945.09;4221601;28;20490;-69
2023/11/08 05:55:48;;;;;;;5.30;1.00;;;10.20;99.90;;;9.74;100.00;100941.19;4236241;28;20046;-69
2023/11/08 05:57:49;;;;;;;4.78;1.30;;;10.30;99.90;;;9.78;100.00;100937.31;4237584;28;20024;-69
2023/11/08 05:59:51;;;;;;;8.40;1.23;;;10.30;99.90;;;9.81;100.00;100934.38;4220267;28;20483;-69
2023/11/08 06:01:52;;;;;;;6.78;1.20;;;10.40;99.90;;;9.86;100.00;100934.75;4219590;28;20032;-69
2023/11/08 06:03:53;;;;;;;6.20;1.08;;;10.40;99.90;;;9.90;100.00;100941.41;4220571;28;20129;-69
2023/11/08 06:05:54;;;;;;;7.90;1.40;;;10.40;99.90;;;9.94;100.00;100940.97;4236472;28;20019;-69
2023/11/08 06:07:56;;;;;;;6.00;1.98;;;10.50;99.90;;;9.96;100.00;100936.38;4220987;28;20023;-69
2023/11/08 06:09:59;;;;;;;8.32;1.20;;;10.50;99.90;;;10.00;100.00;100937.72;4220691;28;20031;-69
2023/11/08 06:12:00;;;;;;;9.38;2.45;;;10.60;99.90;;;10.06;100.00;100936.31;4220567;28;20047;-69
2023/11/08 06:14:01;;;;;;;11.15;1.90;;;10.60;99.90;;;10.10;100.00;100926.28;4220647;28;20067;-69
2023/11/08 06:16:02;;;;;;;10.93;1.45;;;10.60;99.90;;;10.17;100.00;100935.31;4220374;28;20028;-69
2023/11/08 06:18:03;;;;;;;11.45;1.83;;;10.70;99.90;;;10.22;100.00;100925.13;4241498;27;20528;-69
2023/11/08 06:20:08;;;;;;;6.93;1.33;;;10.70;99.90;;;10.24;100.00;100913.50;4237227;28;20028;-69
2023/11/08 06:22:10;;;;;;;7.30;1.20;;;10.80;99.90;;;10.30;100.00;100915.53;4237275;28;20027;-69
2023/11/08 06:24:10;;;;;;;9.63;1.98;;;10.80;99.90;;;10.31;100.00;100914.53;4236833;27;20036;-69
2023/11/08 06:26:15;;;;;;;13.13;2.65;;;10.80;99.90;;;10.32;100.00;100905.66;4236082;28;20026;-70
2023/11/08 06:28:16;;;;;;;5.93;1.45;;;10.80;99.90;;;10.30;100.00;100901.50;4236002;28;20024;-69
2023/11/08 06:30:17;;;;;;;11.38;1.58;;;10.80;99.90;;;10.28;100.00;100904.28;4223584;28;20073;-70
2023/11/08 06:32:20;;;;;;;8.82;1.60;;;10.80;99.90;;;10.24;100.00;100902.94;4218698;28;20031;-69
2023/11/08 06:34:21;;;;;;;7.25;1.20;;;10.80;99.90;;;10.21;100.00;100905.88;4226644;28;20044;-69
2023/11/08 06:36:22;;;;;;;5.40;1.25;;;10.80;99.90;;;10.23;100.00;100905.72;4219980;28;20406;-69
2023/11/08 06:38:23;;;;;;;7.72;1.98;;;10.70;99.90;;;10.23;100.00;100905.72;4227436;28;20023;-69
2023/11/08 06:40:24;;;;;;;7.50;1.77;;;10.70;99.90;;;10.21;100.00;100913.78;4220224;28;20036;-69
2023/11/08 06:42:25;;;;;;;9.25;2.67;;;10.70;99.90;;;10.20;100.00;100908.66;4220117;28;20026;-69
2023/11/08 06:44:26;;;;;;;8.45;1.30;;;10.70;99.90;;;10.24;100.00;100907.38;4220008;28;20040;-69
2023/11/08 06:46:27;;;;;;;9.93;1.90;;;10.70;99.90;;;10.26;100.00;100915.97;4220010;28;20024;-69
2023/11/08 06:48:27;;;;;;;5.78;1.58;;;10.70;99.90;;;10.27;100.00;100907.09;4224946;28;20503;-69
2023/11/08 06:50:28;;;;;;;9.77;1.77;;;10.80;99.90;;;10.26;100.00;100902.78;4220039;28;20390;-69
2023/11/08 06:52:29;;;;;;;6.72;1.30;;;10.80;99.90;;;10.22;100.00;100896.13;4219771;28;20479;-69
2023/11/08 06:54:33;;;;;;;12.60;2.30;;;10.80;99.90;;;10.26;100.00;100900.97;4235594;28;20027;-69
2023/11/08 06:56:34;;;;;;;9.35;1.55;;;10.80;99.90;;;10.26;100.00;100898.34;4219934;28;20040;-69
2023/11/08 06:58:35;;;;;;;12.00;2.17;;;10.80;99.90;;;10.35;100.00;100888.69;4222649;28;20031;-69
2023/11/08 07:00:36;;;;;;;15.38;1.60;;;10.90;99.90;;;10.41;100.00;100896.00;4226466;28;20039;-69
2023/11/08 07:02:37;;;;;;;8.40;1.58;;;10.90;99.90;;;10.40;100.00;100889.91;4235421;28;20027;-69
2023/11/08 07:04:38;;;;;;;9.63;1.95;;;10.90;99.90;;;10.42;100.00;100895.03;4219554;28;20044;-69
2023/11/08 07:06:39;;;;;;;11.45;1.77;;;10.90;99.90;;;10.43;100.00;100888.75;4219737;28;20016;-69
2023/11/08 07:08:40;;;;;;;7.75;2.33;;;11.00;99.90;;;10.44;100.00;100887.78;4227286;28;20390;-69
2023/11/08 07:10:41;;;;;;;11.98;2.67;;;11.00;99.90;;;10.46;100.00;100881.38;4222846;28;20020;-69
2023/11/08 07:12:42;;;;;;;7.68;1.85;;;11.00;99.90;;;10.52;100.00;100872.03;4233919;28;20033;-69
2023/11/08 07:14:43;;;;;;;14.88;2.85;;;11.10;99.90;;;10.64;100.00;100880.53;4234327;28;20031;-69
2023/11/08 07:16:44;;;;;;;12.30;1.88;;;11.10;99.90;;;10.65;100.00;100883.03;4227848;28;20036;-69
2023/11/08 07:18:45;;;;;;;12.48;3.60;;;11.20;99.90;;;10.67;100.00;100883.69;4229434;28;20050;-69
2023/11/08 07:20:46;;;;;;;14.30;1.80;;;11.30;99.90;;;10.72;100.00;100883.25;4234560;28;20028;-69
2023/11/08 07:22:47;;;;;;;19.02;3.13;;;11.30;99.90;;;10.83;100.00;100888.28;4234990;28;20140;-69
2023/11/08 07:24:48;;;;;;;11.25;2.60;;;11.30;99.90;;;10.85;100.00;100887.13;4219450;28;20104;-69
2023/11/08 07:26:51;;;;;;;10.13;1.85;;;11.40;99.90;;;10.90;100.00;100884.84;4219304;28;20038;-69
2023/11/08 07:28:51;;;;;;;10.55;2.25;;;11.40;99.90;;;11.01;100.00;100887.25;4228870;28;20028;-69
2023/11/08 07:30:52;;;;;;;12.75;2.33;;;11.50;99.90;;;11.09;100.00;100883.81;4219540;28;20372;-69
2023/11/08 07:32:53;;;;;;;6.63;2.05;;;11.60;99.90;;;11.17;100.00;100873.31;4221227;28;20034;-70
2023/11/08 07:34:54;;;;;;;11.20;1.85;;;11.70;99.90;;;11.24;100.00;100863.78;4224751;28;20036;-69
2023/11/08 07:36:55;;;;;;;16.13;2.67;;;11.70;99.90;;;11.33;100.00;100872.56;4217871;28;20035;-69
2023/11/08 07:38:56;;;;;;;14.73;1.90;;;11.80;99.90;;;11.41;100.00;100867.34;4224687;28;20020;-70
2023/11/08 07:41:01;;;;;;;13.00;2.67;;;11.90;99.90;;;11.46;100.00;100865.03;4225641;28;20031;-69
2023/11/08 07:43:02;;;;;;;9.18;2.67;;;12.00;99.90;;;11.54;100.00;100870.34;4235912;28;20062;-70
2023/11/08 07:45:04;;;;;;;13.77;2.45;;;12.00;99.90;;;11.58;100.00;100863.78;4235103;28;20448;-69
2023/11/08 07:47:05;;;;;;;12.15;1.98;;;12.00;99.90;;;11.67;100.00;100865.47;4234587;28;20052;-70
2023/11/08 07:49:06;;;;;;;14.60;1.77;;;12.10;99.90;;;11.74;100.00;100868.34;4227621;28;20061;-69
2023/11/08 07:51:10;;;;;;;11.85;2.30;;;12.20;99.90;;;11.79;100.00;100866.84;4219978;28;20055;-69
2023/11/08 07:53:11;;;;;;;17.50;1.88;;;12.20;99.90;;;11.84;100.00;100866.34;4234874;28;20035;-70
2023/11/08 07:55:12;;;;;;;13.57;2.97;;;12.30;99.90;;;11.85;100.00;100860.09;4235996;28;20035;-69
2023/11/08 07:57:13;;;;;;;11.00;2.08;;;12.30;99.90;;;11.88;100.00;100876.47;4235856;28;20034;-70
2023/11/08 07:59:14;;;;;;;15.82;2.70;;;12.40;99.90;;;11.89;100.00;100872.81;4223640;28;20077;-69
2023/11/08 08:01:15;;;;;;;15.27;2.30;;;12.40;99.90;;;11.96;100.00;100867.72;4218738;28;20368;-69
2023/11/08 08:03:16;;;;;;;10.75;2.30;;;12.40;99.90;;;12.00;100.00;100863.78;4218964;28;20020;-69
2023/11/08 08:05:16;;;;;;;12.80;2.97;;;12.50;99.90;;;12.05;100.00;100872.03;4218659;28;20036;-69
2023/11/08 08:07:17;;;;;;;16.38;3.08;;;12.50;99.90;;;12.06;100.00;100863.94;4218482;28;20024;-69
2023/11/08 08:09:18;;;;;;;17.42;2.95;;;12.50;99.90;;;12.18;100.00;100867.91;4247306;27;20023;-69
2023/11/08 08:11:19;;;;;;;23.10;3.05;;;12.60;99.90;;;12.31;100.00;100864.78;4218914;28;20024;-69
2023/11/08 08:13:20;;;;;;;15.77;2.80;;;12.70;99.90;;;12.35;100.00;100866.13;4218790;28;20107;-69
2023/11/08 08:15:24;;;;;;;17.88;3.35;;;12.70;99.90;;;12.41;100.00;100867.28;4234371;28;20506;-69
2023/11/08 08:17:25;;;;;;;18.77;3.30;;;12.80;99.90;;;12.40;100.00;100861.16;4218562;28;20032;-69
2023/11/08 08:19:28;;;;;;;12.40;3.10;;;12.80;99.90;;;12.50;100.00;100845.97;4248503;27;20311;-69
2023/11/08 08:21:28;;;;;;;10.38;3.03;;;12.90;99.90;;;12.55;100.00;100850.75;4228509;28;20046;-69
2023/11/08 08:23:29;;;;;;;15.30;3.45;;;12.90;99.90;;;12.61;100.00;100856.19;4218594;28;20036;-69
2023/11/08 08:25:31;;;;;;;14.88;3.08;;;13.00;99.90;;;12.60;100.00;100856.38;4217153;28;20024;-69